createdAt,value
2023-01-29T00:01:59.873Z,101212.84
2023-01-29T00:04:26.976Z,101206.50
2023-01-29T00:06:54.043Z,101196.84
2023-01-29T00:09:21.203Z,101184.97
2023-01-29T00:11:48.480Z,101183.97
2023-01-29T00:14:15.753Z,101186.72
2023-01-29T00:16:42.983Z,101189.72
2023-01-29T00:19:10.153Z,101187.63
2023-01-29T00:21:37.322Z,101188.78
2023-01-29T00:24:04.726Z,101179.97
2023-01-29T00:26:32.233Z,101186.19
2023-01-29T00:29:00.685Z,101181.91
2023-01-29T00:31:28.110Z,101176.81
2023-01-29T00:33:55.228Z,101176.69
2023-01-29T00:36:23.462Z,101175.38
2023-01-29T00:39:00.634Z,101161.97
2023-01-29T00:41:49.216Z,101175.94
2023-01-29T00:44:35.237Z,101169.41
2023-01-29T00:47:03.436Z,101164.84
2023-01-29T00:49:38.266Z,101162.53
2023-01-29T00:52:24.009Z,101161.59
2023-01-29T00:54:55.794Z,101156.56
2023-01-29T00:57:25.053Z,101157.06
2023-01-29T00:59:52.267Z,101155.78
2023-01-29T01:02:38.074Z,101151.47
2023-01-29T01:05:07.794Z,101134.31
2023-01-29T01:07:34.905Z,101125.06
2023-01-29T01:10:20.440Z,101118.56
2023-01-29T01:13:08.584Z,101125.06
2023-01-29T01:15:38.576Z,101106.47
2023-01-29T01:18:06.346Z,101102.69
2023-01-29T01:20:36.327Z,101120.81
2023-01-29T01:23:04.223Z,101103.84
2023-01-29T01:25:31.486Z,101102.81
2023-01-29T01:28:02.725Z,101109.88
2023-01-29T01:30:29.814Z,101094.88
2023-01-29T01:32:56.875Z,101106.63
2023-01-29T01:35:24.026Z,101112.84
2023-01-29T01:37:51.057Z,101107.13
2023-01-29T01:40:23.611Z,101104.22
2023-01-29T01:42:59.706Z,101092.28
2023-01-29T01:45:36.585Z,101101.03
2023-01-29T01:48:26.937Z,101111.56
2023-01-29T01:51:05.194Z,101121.69
2023-01-29T01:53:42.506Z,101118.06
2023-01-29T01:56:21.396Z,101110.13
2023-01-29T01:58:56.943Z,101112.84
2023-01-29T02:01:29.919Z,101115.81
2023-01-29T02:04:48.872Z,101117.44
2023-01-29T02:07:34.969Z,101120.16
2023-01-29T02:10:20.844Z,101112.22
2023-01-29T02:12:48.531Z,101118.19
2023-01-29T02:15:15.561Z,101117.03
2023-01-29T02:17:42.588Z,101115.50
2023-01-29T02:20:26.528Z,101108.69
2023-01-29T02:23:54.600Z,101107.41
2023-01-29T02:26:49.572Z,101100.78
2023-01-29T02:29:34.530Z,101098.16
2023-01-29T02:32:22.297Z,101087.09
2023-01-29T02:35:26.158Z,101098.19
2023-01-29T02:38:23.594Z,101081.47
2023-01-29T02:41:01.141Z,101084.00
2023-01-29T02:43:53.082Z,101080.47
2023-01-29T02:46:51.072Z,101079.69
2023-01-29T02:49:50.113Z,101082.06
2023-01-29T02:52:30.037Z,101062.81
2023-01-29T02:55:12.580Z,101077.66
2023-01-29T02:57:45.000Z,101073.50
2023-01-29T03:00:27.797Z,101059.81
2023-01-29T03:02:56.551Z,101066.56
2023-01-29T03:05:44.898Z,101065.13
2023-01-29T03:08:18.562Z,101062.25
2023-01-29T03:10:57.599Z,101070.44
2023-01-29T03:14:07.490Z,101065.69
2023-01-29T03:16:46.245Z,101068.28
2023-01-29T03:19:34.544Z,101058.38
2023-01-29T03:22:04.544Z,101063.84
2023-01-29T03:25:00.961Z,101047.84
2023-01-29T03:28:17.300Z,101054.59
2023-01-29T03:31:26.900Z,101055.66
2023-01-29T03:34:35.237Z,101055.91
2023-01-29T03:37:38.001Z,101054.72
2023-01-29T03:40:07.127Z,101051.84
2023-01-29T03:42:51.775Z,101054.34
2023-01-29T03:45:31.976Z,101046.53
2023-01-29T03:48:22.669Z,101053.56
2023-01-29T03:51:08.252Z,101060.03
2023-01-29T03:54:07.647Z,101053.81
2023-01-29T03:56:50.379Z,101060.09
2023-01-29T03:59:41.184Z,101044.19
2023-01-29T04:02:16.826Z,101042.38
2023-01-29T04:04:50.209Z,101037.47
2023-01-29T04:07:24.477Z,101040.28
2023-01-29T04:10:19.185Z,101035.88
2023-01-29T04:13:09.404Z,101034.09
2023-01-29T04:15:47.167Z,101035.47
2023-01-29T04:18:14.471Z,101021.16
2023-01-29T04:20:42.140Z,101036.00
2023-01-29T04:23:23.021Z,101030.63
2023-01-29T04:26:08.073Z,101022.06
2023-01-29T04:28:59.929Z,101022.03
2023-01-29T04:31:40.058Z,101009.31
2023-01-29T04:34:29.474Z,101016.09
2023-01-29T04:37:02.975Z,101018.97
2023-01-29T04:39:46.735Z,101019.25
2023-01-29T04:42:32.948Z,101020.25
2023-01-29T04:45:06.789Z,101021.00
2023-01-29T04:48:12.909Z,101020.03
2023-01-29T04:50:56.807Z,101009.22
2023-01-29T04:53:43.435Z,101004.13
2023-01-29T04:56:41.143Z,101007.72
2023-01-29T04:59:14.587Z,100997.59
2023-01-29T05:01:42.020Z,100994.19
2023-01-29T05:04:14.512Z,100999.78
2023-01-29T05:06:43.245Z,100997.59
2023-01-29T05:09:12.892Z,100998.91
2023-01-29T05:11:40.767Z,101007.88
2023-01-29T05:14:11.721Z,101002.78
2023-01-29T05:16:51.665Z,100999.81
2023-01-29T05:19:18.987Z,101004.78
2023-01-29T05:21:49.728Z,101002.31
2023-01-29T05:24:23.365Z,100999.31
2023-01-29T05:27:12.277Z,100996.06
2023-01-29T05:29:47.135Z,100992.56
2023-01-29T05:32:15.590Z,100992.94
2023-01-29T05:34:42.874Z,100981.13
2023-01-29T05:37:10.593Z,100970.31
2023-01-29T05:39:37.646Z,100965.63
2023-01-29T05:42:04.738Z,100971.09
2023-01-29T05:44:31.837Z,100966.66
2023-01-29T05:46:58.836Z,100963.28
2023-01-29T05:49:26.024Z,100967.69
2023-01-29T05:51:53.066Z,100969.78
2023-01-29T05:54:20.157Z,100960.34
2023-01-29T05:56:47.335Z,100964.06
2023-01-29T05:59:16.229Z,100963.75
2023-01-29T06:01:43.662Z,100966.34
2023-01-29T06:04:10.820Z,100967.84
2023-01-29T06:06:37.868Z,100969.50
2023-01-29T06:09:04.996Z,100971.38
2023-01-29T06:11:31.991Z,100972.44
2023-01-29T06:13:58.971Z,100973.31
2023-01-29T06:16:26.068Z,100973.78
2023-01-29T06:18:53.132Z,100978.88
2023-01-29T06:21:20.306Z,100969.25
2023-01-29T06:23:47.506Z,100974.72
2023-01-29T06:26:16.067Z,100984.09
2023-01-29T06:28:45.924Z,100973.16
2023-01-29T06:31:35.194Z,100979.56
2023-01-29T06:33:59.973Z,100968.88
2023-01-29T06:36:27.019Z,100960.19
2023-01-29T06:38:54.025Z,100966.16
2023-01-29T06:41:25.285Z,100967.06
2023-01-29T06:43:52.617Z,100964.31
2023-01-29T06:46:20.045Z,100966.09
2023-01-29T06:48:47.141Z,100967.78
2023-01-29T06:51:14.321Z,100964.97
2023-01-29T06:53:42.809Z,100967.81
2023-01-29T06:56:10.434Z,100977.28
2023-01-29T06:58:38.431Z,100978.06
2023-01-29T07:01:08.125Z,100980.78
2023-01-29T07:03:35.649Z,100976.72
2023-01-29T07:06:03.254Z,100958.28
2023-01-29T07:08:30.266Z,100951.38
2023-01-29T07:11:01.132Z,100951.25
2023-01-29T07:13:28.748Z,100948.88
2023-01-29T07:16:02.918Z,100949.91
2023-01-29T07:18:31.000Z,100955.38
2023-01-29T07:20:58.380Z,100957.06
2023-01-29T07:23:25.917Z,100946.13
2023-01-29T07:25:52.990Z,100954.03
2023-01-29T07:28:20.750Z,100962.63
2023-01-29T07:30:47.917Z,100968.56
2023-01-29T07:33:14.917Z,100973.13
2023-01-29T07:35:43.768Z,100972.47
2023-01-29T07:38:12.094Z,100980.13
2023-01-29T07:40:39.186Z,100982.00
2023-01-29T07:43:09.677Z,100972.16
2023-01-29T07:45:39.447Z,100974.44
2023-01-29T07:48:10.439Z,100969.34
2023-01-29T07:50:37.709Z,100967.91
2023-01-29T07:53:04.912Z,100963.59
2023-01-29T07:55:33.251Z,100951.69
2023-01-29T07:58:03.293Z,100952.56
2023-01-29T08:00:32.246Z,100952.50
2023-01-29T08:03:05.383Z,100954.34
2023-01-29T08:05:32.639Z,100953.28
2023-01-29T08:08:06.584Z,100946.47
2023-01-29T08:10:36.787Z,100948.75
2023-01-29T08:13:05.575Z,100943.59
2023-01-29T08:15:33.557Z,100938.72
2023-01-29T08:18:02.385Z,100931.72
2023-01-29T08:20:29.551Z,100938.63
2023-01-29T08:23:06.022Z,100930.81
2023-01-29T08:25:33.748Z,100943.53
2023-01-29T08:28:01.708Z,100941.16
2023-01-29T08:30:32.219Z,100940.47
2023-01-29T08:32:59.308Z,100937.00
2023-01-29T08:35:27.113Z,100941.44
2023-01-29T08:37:59.763Z,100938.47
2023-01-29T08:40:31.917Z,100941.53
2023-01-29T08:43:06.283Z,100942.78
2023-01-29T08:45:42.958Z,100937.78
2023-01-29T08:48:10.857Z,100935.09
2023-01-29T08:50:38.083Z,100936.44
2023-01-29T08:53:08.528Z,100937.91
2023-01-29T08:55:37.796Z,100935.72
2023-01-29T08:58:07.188Z,100931.00
2023-01-29T09:00:35.141Z,100934.34
2023-01-29T09:03:03.253Z,100942.41
2023-01-29T09:05:30.515Z,100932.66
2023-01-29T09:07:58.147Z,100928.34
2023-01-29T09:10:25.432Z,100921.41
2023-01-29T09:12:52.422Z,100919.13
2023-01-29T09:15:19.718Z,100912.34
2023-01-29T09:17:46.989Z,100922.09
2023-01-29T09:20:14.006Z,100904.41
2023-01-29T09:22:41.659Z,100909.97
2023-01-29T09:25:09.118Z,100911.91
2023-01-29T09:27:36.146Z,100898.63
2023-01-29T09:30:05.381Z,100898.28
2023-01-29T09:32:53.697Z,100902.94
2023-01-29T09:35:23.487Z,100889.66
2023-01-29T09:37:52.019Z,100898.63
2023-01-29T09:40:30.235Z,100883.78
2023-01-29T09:43:12.872Z,100884.00
2023-01-29T09:45:51.661Z,100880.13
2023-01-29T09:48:19.637Z,100879.88
2023-01-29T09:50:51.596Z,100877.69
2023-01-29T09:53:42.943Z,100866.81
2023-01-29T09:56:20.352Z,100873.25
2023-01-29T09:58:48.051Z,100872.72
2023-01-29T10:02:07.327Z,100868.66
2023-01-29T10:05:21.350Z,100872.69
2023-01-29T10:08:13.749Z,100864.88
2023-01-29T10:11:16.923Z,100858.50
2023-01-29T10:14:03.373Z,100855.47
2023-01-29T10:16:51.461Z,100848.22
2023-01-29T10:19:45.164Z,100847.00
2023-01-29T10:22:53.744Z,100846.00
2023-01-29T10:25:22.988Z,100844.41
2023-01-29T10:27:58.156Z,100835.19
2023-01-29T10:30:32.405Z,100831.13
2023-01-29T10:33:04.738Z,100837.47
2023-01-29T10:35:50.352Z,100840.44
2023-01-29T10:38:38.860Z,100843.84
2023-01-29T10:41:11.614Z,100838.06
2023-01-29T10:44:15.587Z,100835.69
2023-01-29T10:47:11.227Z,100835.69
2023-01-29T10:49:41.017Z,100835.88
2023-01-29T10:53:09.204Z,100833.44
2023-01-29T10:55:57.001Z,100823.31
2023-01-29T10:58:29.866Z,100826.59
2023-01-29T11:00:57.184Z,100829.53
2023-01-29T11:03:29.354Z,100822.88
2023-01-29T11:06:13.070Z,100821.19
2023-01-29T11:08:48.380Z,100813.38
2023-01-29T11:11:22.361Z,100807.00
2023-01-29T11:14:02.862Z,100814.91
2023-01-29T11:16:33.293Z,100805.28
2023-01-29T11:19:01.667Z,100802.25
2023-01-29T11:21:29.841Z,100795.53
2023-01-29T11:24:18.707Z,100789.53
2023-01-29T11:26:49.529Z,100775.25
2023-01-29T11:29:43.087Z,100766.97
2023-01-29T11:32:32.740Z,100755.38
2023-01-29T11:35:22.398Z,100752.72
2023-01-29T11:37:49.597Z,100751.56
2023-01-29T11:40:27.843Z,100748.97
2023-01-29T11:42:54.838Z,100754.41
2023-01-29T11:45:25.293Z,100745.47
2023-01-29T11:47:57.291Z,100742.13
2023-01-29T11:50:28.895Z,100740.00
2023-01-29T11:52:58.352Z,100732.19
2023-01-29T11:55:48.246Z,100732.97
2023-01-29T11:58:27.185Z,100726.00
2023-01-29T12:00:55.608Z,100718.50
2023-01-29T12:03:53.182Z,100711.94
2023-01-29T12:06:31.961Z,100714.78
2023-01-29T12:09:02.296Z,100707.88
2023-01-29T12:11:35.276Z,100711.13
2023-01-29T12:14:05.796Z,100694.59
2023-01-29T12:16:59.791Z,100690.59
2023-01-29T12:19:48.953Z,100692.75
2023-01-29T12:22:44.031Z,100689.47
2023-01-29T12:25:39.403Z,100681.09
2023-01-29T12:28:24.711Z,100680.03
2023-01-29T12:31:23.997Z,100679.28
2023-01-29T12:34:20.454Z,100671.47
2023-01-29T12:37:12.346Z,100674.88
2023-01-29T12:39:39.354Z,100669.50
2023-01-29T12:42:19.163Z,100665.38
2023-01-29T12:45:01.606Z,100663.09
2023-01-29T12:47:46.999Z,100656.75
2023-01-29T12:50:29.303Z,100653.91
2023-01-29T12:53:34.550Z,100656.81
2023-01-29T12:56:29.334Z,100655.13
2023-01-29T12:58:59.174Z,100651.69
2023-01-29T13:01:38.028Z,100649.41
2023-01-29T13:04:14.406Z,100655.19
2023-01-29T13:06:54.236Z,100657.78
2023-01-29T13:09:28.372Z,100666.34
2023-01-29T13:12:11.906Z,100668.41
2023-01-29T13:15:05.654Z,100675.78
2023-01-29T13:17:47.620Z,100674.06
2023-01-29T13:20:28.003Z,100674.78
2023-01-29T13:23:15.404Z,100656.63
2023-01-29T13:25:43.232Z,100661.50
2023-01-29T13:28:25.605Z,100662.25
2023-01-29T13:31:12.282Z,100648.28
2023-01-29T13:33:43.273Z,100655.81
2023-01-29T13:36:28.712Z,100649.72
2023-01-29T13:39:16.232Z,100643.63
2023-01-29T13:41:43.872Z,100633.28
2023-01-29T13:44:36.697Z,100630.81
2023-01-29T13:47:11.550Z,100627.63
2023-01-29T13:50:06.678Z,100630.50
2023-01-29T13:52:44.601Z,100635.16
2023-01-29T13:55:14.351Z,100628.81
2023-01-29T13:57:44.349Z,100617.06
2023-01-29T14:00:34.409Z,100627.00
2023-01-29T14:03:01.318Z,100629.72
2023-01-29T14:05:31.305Z,100629.25
2023-01-29T14:08:03.603Z,100640.69
2023-01-29T14:10:36.806Z,100637.88
2023-01-29T14:13:03.664Z,100649.75
2023-01-29T14:15:36.343Z,100661.31
2023-01-29T14:18:09.041Z,100670.50
2023-01-29T14:20:47.965Z,100668.38
2023-01-29T14:23:42.079Z,100657.25
2023-01-29T14:26:31.748Z,100637.06
2023-01-29T14:28:58.738Z,100632.66
2023-01-29T14:31:38.964Z,100638.91
2023-01-29T14:34:28.257Z,100649.22
2023-01-29T14:37:27.749Z,100640.03
2023-01-29T14:40:20.695Z,100624.50
2023-01-29T14:42:57.801Z,100611.75
2023-01-29T14:45:41.950Z,100619.56
2023-01-29T14:48:11.763Z,100614.69
2023-01-29T14:50:50.944Z,100612.88
2023-01-29T14:53:45.558Z,100633.25
2023-01-29T14:56:36.617Z,100625.84
2023-01-29T14:59:16.651Z,100637.19
2023-01-29T15:01:58.770Z,100636.97
2023-01-29T15:04:40.466Z,100626.78
2023-01-29T15:07:10.477Z,100630.22
2023-01-29T15:09:48.008Z,100618.88
2023-01-29T15:12:36.428Z,100613.09
2023-01-29T15:15:49.605Z,100601.66
2023-01-29T15:18:42.397Z,100593.06
2023-01-29T15:21:17.703Z,100600.19
2023-01-29T15:23:48.399Z,100594.28
2023-01-29T15:26:26.961Z,100589.00
2023-01-29T15:29:04.937Z,100586.84
2023-01-29T15:31:33.124Z,100569.78
2023-01-29T15:34:07.255Z,100574.47
2023-01-29T15:36:36.632Z,100581.19
2023-01-29T15:39:19.023Z,100585.59
2023-01-29T15:41:47.237Z,100582.53
2023-01-29T15:44:18.714Z,100585.53
2023-01-29T15:46:57.131Z,100582.34
2023-01-29T15:49:32.042Z,100578.38
2023-01-29T15:52:03.601Z,100568.84
2023-01-29T15:54:35.454Z,100567.72
2023-01-29T15:57:03.581Z,100565.59
2023-01-29T15:59:35.538Z,100556.41
2023-01-29T16:02:38.492Z,100565.72
2023-01-29T16:05:13.766Z,100561.63
2023-01-29T16:07:42.261Z,100559.47
2023-01-29T16:10:27.316Z,100554.69
2023-01-29T16:12:55.619Z,100561.63
2023-01-29T16:15:35.962Z,100562.09
2023-01-29T16:18:20.677Z,100570.47
2023-01-29T16:20:53.754Z,100562.09
2023-01-29T16:23:29.563Z,100563.31
2023-01-29T16:26:05.260Z,100568.09
2023-01-29T16:28:32.752Z,100568.66
2023-01-29T16:31:03.861Z,100569.78
2023-01-29T16:33:38.333Z,100569.13
2023-01-29T16:36:23.906Z,100580.75
2023-01-29T16:39:01.734Z,100579.88
2023-01-29T16:41:38.285Z,100578.94
2023-01-29T16:44:35.207Z,100578.47
2023-01-29T16:47:14.451Z,100580.75
2023-01-29T16:49:48.762Z,100578.84
2023-01-29T16:52:25.361Z,100575.81
2023-01-29T16:55:00.688Z,100574.31
2023-01-29T16:57:33.300Z,100567.19
2023-01-29T17:00:06.475Z,100562.31
2023-01-29T17:02:39.098Z,100560.84
2023-01-29T17:05:16.842Z,100560.50
2023-01-29T17:07:46.476Z,100563.13
2023-01-29T17:10:21.554Z,100556.09
2023-01-29T17:13:01.003Z,100552.94
2023-01-29T17:15:43.134Z,100549.63
2023-01-29T17:18:21.477Z,100539.91
2023-01-29T17:20:50.465Z,100543.84
2023-01-29T17:23:17.533Z,100528.69
2023-01-29T17:25:45.599Z,100530.59
2023-01-29T17:28:15.667Z,100526.09
2023-01-29T17:30:44.916Z,100520.50
2023-01-29T17:33:22.848Z,100519.03
2023-01-29T17:35:50.401Z,100504.78
2023-01-29T17:38:25.850Z,100504.47
2023-01-29T17:41:07.574Z,100498.91
2023-01-29T17:43:35.107Z,100493.03
2023-01-29T17:46:02.267Z,100487.34
2023-01-29T17:48:31.188Z,100491.34
2023-01-29T17:51:03.830Z,100480.88
2023-01-29T17:53:44.904Z,100474.72
2023-01-29T17:56:21.439Z,100468.34
2023-01-29T17:58:48.473Z,100462.72
2023-01-29T18:01:15.604Z,100457.28
2023-01-29T18:03:42.695Z,100445.94
2023-01-29T18:06:12.706Z,100445.59
2023-01-29T18:08:40.307Z,100429.59
2023-01-29T18:11:09.888Z,100425.28
2023-01-29T18:13:37.228Z,100438.91
2023-01-29T18:16:04.424Z,100420.28
2023-01-29T18:18:31.498Z,100427.81
2023-01-29T18:20:58.529Z,100420.72
2023-01-29T18:23:25.593Z,100419.75
2023-01-29T18:25:54.721Z,100431.41
2023-01-29T18:28:21.709Z,100445.13
2023-01-29T18:30:48.726Z,100420.59
2023-01-29T18:33:16.951Z,100427.69
2023-01-29T18:35:45.739Z,100427.00
2023-01-29T18:38:12.760Z,100425.72
2023-01-29T18:40:39.974Z,100432.44
2023-01-29T18:43:07.506Z,100439.47
2023-01-29T18:45:34.544Z,100424.78
2023-01-29T18:48:01.715Z,100430.84
2023-01-29T18:50:28.695Z,100417.03
2023-01-29T18:52:56.442Z,100419.97
2023-01-29T18:55:24.314Z,100412.41
2023-01-29T18:58:28.186Z,100406.09
2023-01-29T19:00:42.525Z,100408.81
2023-01-29T19:03:11.207Z,100410.94
2023-01-29T19:05:38.343Z,100410.44
2023-01-29T19:08:05.885Z,100404.66
2023-01-29T19:10:33.603Z,100411.63
2023-01-29T19:13:00.665Z,100404.34
2023-01-29T19:15:28.079Z,100405.59
2023-01-29T19:17:56.082Z,100410.44
2023-01-29T19:20:23.309Z,100408.22
2023-01-29T19:22:50.401Z,100398.25
2023-01-29T19:25:19.604Z,100391.09
2023-01-29T19:27:46.884Z,100384.38
2023-01-29T19:30:14.167Z,100385.53
2023-01-29T19:32:41.471Z,100382.06
2023-01-29T19:35:08.587Z,100376.41
2023-01-29T19:37:35.814Z,100367.59
2023-01-29T19:40:02.901Z,100368.91
2023-01-29T19:42:29.981Z,100376.53
2023-01-29T19:44:56.959Z,100371.97
2023-01-29T19:47:24.057Z,100369.22
2023-01-29T19:49:51.174Z,100368.59
2023-01-29T19:52:50.212Z,100363.47
2023-01-29T19:55:19.198Z,100362.09
2023-01-29T19:57:47.235Z,100353.28
2023-01-29T20:00:15.570Z,100349.16
2023-01-29T20:02:42.651Z,100341.38
2023-01-29T20:05:12.067Z,100347.28
2023-01-29T20:07:42.605Z,100332.94
2023-01-29T20:10:16.958Z,100330.53
2023-01-29T20:12:45.699Z,100327.53
2023-01-29T20:15:14.738Z,100328.34
2023-01-29T20:17:41.792Z,100323.44
2023-01-29T20:20:11.582Z,100312.88
2023-01-29T20:22:38.602Z,100305.38
2023-01-29T20:25:06.144Z,100307.19
2023-01-29T20:27:33.156Z,100308.38
2023-01-29T20:30:00.183Z,100303.19
2023-01-29T20:32:27.221Z,100295.66
2023-01-29T20:34:54.284Z,100292.66
2023-01-29T20:37:21.299Z,100287.16
2023-01-29T20:39:48.419Z,100274.34
2023-01-29T20:42:15.433Z,100276.63
2023-01-29T20:44:42.488Z,100275.53
2023-01-29T20:47:09.658Z,100271.53
2023-01-29T20:49:36.707Z,100263.81
2023-01-29T20:52:03.762Z,100262.31
2023-01-29T20:54:33.239Z,100257.09
2023-01-29T20:57:00.541Z,100257.69
2023-01-29T20:59:29.213Z,100255.22
2023-01-29T21:01:56.340Z,100259.50
2023-01-29T21:04:23.509Z,100252.50
2023-01-29T21:06:50.574Z,100251.22
2023-01-29T21:09:17.587Z,100253.59
2023-01-29T21:11:45.140Z,100248.59
2023-01-29T21:14:12.580Z,100248.09
2023-01-29T21:16:39.985Z,100242.47
2023-01-29T21:19:07.103Z,100238.78
2023-01-29T21:21:34.736Z,100246.69
2023-01-29T21:24:01.763Z,100245.28
2023-01-29T21:26:28.850Z,100238.38
2023-01-29T21:28:55.859Z,100235.66
2023-01-29T21:31:23.058Z,100235.28
2023-01-29T21:33:50.266Z,100242.69
2023-01-29T21:36:17.312Z,100237.78
2023-01-29T21:38:44.438Z,100229.75
2023-01-29T21:41:11.469Z,100235.88
2023-01-29T21:43:39.104Z,100231.88
2023-01-29T21:46:17.221Z,100231.34
2023-01-29T21:48:44.317Z,100220.66
2023-01-29T21:51:11.327Z,100211.91
2023-01-29T21:53:38.476Z,100212.81
2023-01-29T21:56:06.217Z,100196.09
2023-01-29T21:58:33.397Z,100201.28
2023-01-29T22:01:34.538Z,100197.00
2023-01-29T22:03:47.783Z,100195.41
2023-01-29T22:06:15.550Z,100189.28
2023-01-29T22:08:42.711Z,100183.97
2023-01-29T22:11:10.410Z,100183.06
2023-01-29T22:13:37.681Z,100173.25
2023-01-29T22:16:06.062Z,100166.94
2023-01-29T22:18:33.702Z,100170.81
2023-01-29T22:21:04.144Z,100156.63
2023-01-29T22:23:32.361Z,100154.22
2023-01-29T22:26:04.789Z,100144.69
2023-01-29T22:28:31.796Z,100138.06
2023-01-29T22:31:05.601Z,100129.75
2023-01-29T22:33:33.554Z,100133.38
2023-01-29T22:36:01.297Z,100132.44
2023-01-29T22:38:28.905Z,100116.41
2023-01-29T22:40:57.724Z,100109.13
2023-01-29T22:43:26.074Z,100106.69
2023-01-29T22:45:53.214Z,100098.78
2023-01-29T22:48:22.221Z,100089.41
2023-01-29T22:51:09.421Z,100086.88
2023-01-29T22:53:50.473Z,100077.66
2023-01-29T22:56:19.270Z,100070.56
2023-01-29T22:58:57.990Z,100065.44
2023-01-29T23:01:29.207Z,100053.28
2023-01-29T23:03:56.537Z,100055.78
2023-01-29T23:06:24.077Z,100034.94
2023-01-29T23:08:51.898Z,100036.28
2023-01-29T23:11:21.498Z,100031.25
2023-01-29T23:13:52.153Z,100037.94
2023-01-29T23:16:21.974Z,100033.66
2023-01-29T23:18:54.580Z,100031.72
2023-01-29T23:21:25.096Z,100023.00
2023-01-29T23:23:54.252Z,100016.78
2023-01-29T23:26:40.161Z,100021.84
2023-01-29T23:29:07.192Z,100012.16
2023-01-29T23:31:34.182Z,100005.84
2023-01-29T23:34:01.390Z,100008.16
2023-01-29T23:36:28.570Z,100011.78
2023-01-29T23:38:55.665Z,100004.84
2023-01-29T23:41:23.026Z,100004.84
2023-01-29T23:43:50.234Z,99997.47
2023-01-29T23:46:17.248Z,99995.47
2023-01-29T23:48:44.301Z,99985.72
2023-01-29T23:51:11.427Z,99988.16
2023-01-29T23:53:38.838Z,99992.38
2023-01-29T23:56:07.016Z,99989.50
2023-01-29T23:58:34.212Z,99978.34
